WN02 weather

Mile Bluff Medical Center Heliport
Mauston, Wisconsin, United States

Public forecast

Using degrees Fahrenheit for public forecast. Weather courtesy of forecast.io.

Closest aviation weather report (METAR) to Mile Bluff Medical Center Heliport

Closest report is Mauston New Lisbon Union Airport, 4.3 nm (8.0 km) NW. Retrieved 2019/10/18 22:35 UTC (0 seconds ago):

K82C 182235Z AUTO 14009KT 7SM CLR 15/06 A2979 RMK AO2 T01500055

Closest aviation forecast (TAF) to Mile Bluff Medical Center Heliport

Closest forecast is Volk Field, 12.2 nm (22.5 km) NW. Retrieved 2019/10/18 17:13 UTC (5 hours ago):

TAF KVOK 181700Z 1817/1923 15012G18KT 9999 FEW250 QNH2977INS TEMPO 1817/1822 15015G25KT BECMG 1822/1823 17010KT 9999 FEW100 WS020/19045KT QNH2973INS BECMG 1908/1909 18009KT 9000 -SHRA BKN020 OVC040 QNH2974INS BECMG 1913/1914 20009KT 6000 -SHRA BKN010 OVC020 QNH2975INS BECMG 1918/1919 22006KT 9999 NSW BKN020 OVC040 QNH2976INS TX15/1821Z TN07/1912Z LAST NO AMDS AFT 1821 NEXT 2109